createdAt,value
2022-12-06T00:01:30.044Z,5.10
2022-12-06T00:03:57.590Z,6.10
2022-12-06T00:06:25.171Z,4.97
2022-12-06T00:08:53.471Z,5.53
2022-12-06T00:11:20.995Z,4.80
2022-12-06T00:13:48.590Z,4.83
2022-12-06T00:16:16.227Z,4.53
2022-12-06T00:18:43.629Z,4.87
2022-12-06T00:21:17.223Z,4.70
2022-12-06T00:23:44.744Z,6.10
2022-12-06T00:26:13.066Z,6.15
2022-12-06T00:28:40.622Z,5.27
2022-12-06T00:31:08.146Z,4.87
2022-12-06T00:33:36.429Z,4.60
2022-12-06T00:36:03.993Z,5.03
2022-12-06T00:38:31.521Z,4.80
2022-12-06T00:41:02.058Z,4.57
2022-12-06T00:43:29.631Z,5.07
2022-12-06T00:45:57.954Z,5.30
2022-12-06T00:48:25.458Z,4.27
2022-12-06T00:50:53.780Z,4.13
2022-12-06T00:53:21.305Z,4.07
2022-12-06T00:55:48.842Z,4.83
2022-12-06T00:58:17.162Z,4.23
2022-12-06T01:00:44.688Z,4.43
2022-12-06T01:03:13.015Z,4.20
2022-12-06T01:05:44.226Z,4.20
2022-12-06T01:08:11.816Z,4.57
2022-12-06T01:10:40.046Z,4.70
2022-12-06T01:13:08.387Z,3.97
2022-12-06T01:15:38.905Z,4.73
2022-12-06T01:18:06.429Z,5.50
2022-12-06T01:20:33.994Z,5.00
2022-12-06T01:23:01.530Z,5.23
2022-12-06T01:25:35.591Z,5.70
2022-12-06T01:27:57.376Z,5.27
2022-12-06T01:30:24.943Z,4.73
2022-12-06T01:32:53.194Z,4.23
2022-12-06T01:35:21.517Z,4.10
2022-12-06T01:37:49.041Z,4.53
2022-12-06T01:40:16.567Z,4.33
2022-12-06T01:42:44.133Z,4.50
2022-12-06T01:45:11.667Z,6.22
2022-12-06T01:47:39.199Z,6.00
2022-12-06T01:50:15.833Z,5.90
2022-12-06T01:53:05.285Z,4.83
2022-12-06T01:55:33.814Z,4.63
2022-12-06T01:58:07.079Z,5.43
2022-12-06T02:00:35.363Z,4.90
2022-12-06T02:03:03.753Z,4.17
2022-12-06T02:05:33.878Z,5.93
2022-12-06T02:07:58.840Z,5.53
2022-12-06T02:10:27.165Z,5.27
2022-12-06T02:12:54.739Z,5.50
2022-12-06T02:15:22.244Z,4.53
2022-12-06T02:18:00.217Z,4.97
2022-12-06T02:20:33.688Z,5.57
2022-12-06T02:23:32.682Z,5.20
2022-12-06T02:26:03.180Z,4.87
2022-12-06T02:28:43.564Z,5.10
2022-12-06T02:31:22.988Z,5.30
2022-12-06T02:33:53.217Z,5.00
2022-12-06T02:36:23.616Z,5.50
2022-12-06T02:39:06.716Z,5.70
2022-12-06T02:41:40.414Z,7.35
2022-12-06T02:44:07.942Z,7.40
2022-12-06T02:46:35.582Z,5.57
2022-12-06T02:49:03.038Z,5.67
2022-12-06T02:51:30.556Z,5.23
2022-12-06T02:53:58.137Z,4.33
2022-12-06T02:56:26.432Z,5.72
2022-12-06T02:58:53.965Z,4.03
2022-12-06T03:01:26.257Z,3.90
2022-12-06T03:03:59.610Z,4.33
2022-12-06T03:06:48.038Z,4.30
2022-12-06T03:09:24.316Z,4.13
2022-12-06T03:11:54.553Z,4.30
2022-12-06T03:14:22.089Z,5.70
2022-12-06T03:17:04.658Z,5.87
2022-12-06T03:19:32.193Z,4.83
2022-12-06T03:22:08.756Z,4.97
2022-12-06T03:24:36.325Z,5.70
2022-12-06T03:27:06.680Z,5.83
2022-12-06T03:29:34.206Z,4.47
2022-12-06T03:32:01.790Z,4.80
2022-12-06T03:34:37.968Z,4.90
2022-12-06T03:37:05.494Z,4.93
2022-12-06T03:39:39.861Z,5.03
2022-12-06T03:42:07.385Z,4.63
2022-12-06T03:44:34.909Z,5.40
2022-12-06T03:47:17.170Z,4.87
2022-12-06T03:49:45.419Z,6.62
2022-12-06T03:52:12.944Z,4.60
2022-12-06T03:54:40.531Z,5.37
2022-12-06T03:57:08.822Z,6.30
2022-12-06T03:59:36.346Z,5.57
2022-12-06T04:02:04.279Z,4.80
2022-12-06T04:04:31.770Z,5.10
2022-12-06T04:06:59.325Z,5.30
2022-12-06T04:09:45.273Z,5.00
2022-12-06T04:12:30.845Z,7.20
2022-12-06T04:14:58.422Z,5.40
2022-12-06T04:17:43.873Z,5.60
2022-12-06T04:20:11.448Z,4.77
2022-12-06T04:22:56.890Z,5.70
2022-12-06T04:25:25.223Z,5.03
2022-12-06T04:28:10.983Z,4.93
2022-12-06T04:30:57.542Z,5.03
2022-12-06T04:33:43.104Z,5.27
2022-12-06T04:36:29.267Z,4.97
2022-12-06T04:38:56.792Z,4.63
2022-12-06T04:41:43.583Z,5.00
2022-12-06T04:44:11.101Z,5.37
2022-12-06T04:46:38.697Z,5.63
2022-12-06T04:49:07.848Z,5.20
2022-12-06T04:51:35.379Z,5.23
2022-12-06T04:54:03.663Z,5.60
2022-12-06T04:56:31.997Z,5.90
2022-12-06T04:58:59.520Z,6.20
2022-12-06T05:01:27.055Z,7.87
2022-12-06T05:03:55.783Z,5.83
2022-12-06T05:06:23.307Z,6.23
2022-12-06T05:08:51.608Z,6.07
2022-12-06T05:11:19.200Z,5.70
2022-12-06T05:13:46.741Z,5.70
2022-12-06T05:16:14.346Z,5.73
2022-12-06T05:18:41.847Z,5.40
2022-12-06T05:21:09.387Z,5.60
2022-12-06T05:23:37.681Z,6.07
2022-12-06T05:26:05.278Z,6.47
2022-12-06T05:28:32.760Z,5.30
2022-12-06T05:31:01.119Z,5.80
2022-12-06T05:33:29.665Z,7.37
2022-12-06T05:35:57.216Z,6.40
2022-12-06T05:38:24.750Z,6.43
2022-12-06T05:40:53.447Z,7.68
2022-12-06T05:43:20.981Z,6.83
2022-12-06T05:45:49.316Z,9.45
2022-12-06T05:48:16.875Z,8.33
2022-12-06T05:50:44.360Z,8.33
2022-12-06T05:53:11.907Z,10.00
2022-12-06T05:55:39.834Z,7.03
2022-12-06T05:58:07.367Z,8.15
2022-12-06T06:00:35.666Z,8.00
2022-12-06T06:03:03.363Z,7.60
2022-12-06T06:05:30.792Z,6.83
2022-12-06T06:07:58.347Z,6.27
2022-12-06T06:10:27.023Z,6.70
2022-12-06T06:12:54.540Z,6.30
2022-12-06T06:15:22.062Z,6.23
2022-12-06T06:17:49.625Z,8.05
2022-12-06T06:20:17.160Z,6.60
2022-12-06T06:22:44.694Z,6.70
2022-12-06T06:25:13.039Z,6.63
2022-12-06T06:27:40.621Z,5.87
2022-12-06T06:30:08.273Z,5.70
2022-12-06T06:32:35.788Z,7.60
2022-12-06T06:35:03.326Z,7.85
2022-12-06T06:37:30.848Z,7.03
2022-12-06T06:39:58.813Z,6.13
2022-12-06T06:42:25.946Z,7.62
2022-12-06T06:44:53.482Z,8.48
2022-12-06T06:47:22.189Z,7.17
2022-12-06T06:49:49.724Z,6.53
2022-12-06T06:52:17.257Z,7.87
2022-12-06T06:54:45.607Z,6.63
2022-12-06T06:57:17.559Z,6.23
2022-12-06T06:59:40.659Z,6.20
2022-12-06T07:02:09.178Z,5.97
2022-12-06T07:04:36.664Z,6.13
2022-12-06T07:07:04.199Z,6.47
2022-12-06T07:09:32.245Z,6.50
2022-12-06T07:11:59.780Z,6.40
2022-12-06T07:14:28.072Z,6.03
2022-12-06T07:16:55.765Z,6.50
2022-12-06T07:19:23.231Z,6.10
2022-12-06T07:21:50.756Z,6.87
2022-12-06T07:24:18.409Z,6.13
2022-12-06T07:26:45.943Z,6.70
2022-12-06T07:29:14.237Z,6.00
2022-12-06T07:31:41.800Z,5.90
2022-12-06T07:34:09.355Z,6.63
2022-12-06T07:36:36.889Z,6.50
2022-12-06T07:39:06.863Z,6.50
2022-12-06T07:41:50.873Z,6.00
2022-12-06T07:44:36.663Z,5.90
2022-12-06T07:47:04.187Z,6.10
2022-12-06T07:49:31.725Z,6.23
2022-12-06T07:51:59.346Z,6.20
2022-12-06T07:54:26.861Z,6.20
2022-12-06T07:56:54.386Z,6.70
2022-12-06T07:59:22.226Z,6.20
2022-12-06T08:01:49.810Z,6.23
2022-12-06T08:04:18.132Z,5.77
2022-12-06T08:06:45.933Z,5.63
2022-12-06T08:09:13.458Z,6.30
2022-12-06T08:11:40.992Z,6.30
2022-12-06T08:14:08.559Z,6.27
2022-12-06T08:16:36.083Z,8.70
2022-12-06T08:19:03.617Z,8.52
2022-12-06T08:21:31.202Z,7.20
2022-12-06T08:23:58.725Z,6.77
2022-12-06T08:26:27.027Z,6.83
2022-12-06T08:28:54.603Z,6.57
2022-12-06T08:31:22.198Z,7.40
2022-12-06T08:33:49.661Z,6.73
2022-12-06T08:36:18.006Z,6.80
2022-12-06T08:38:45.543Z,6.47
2022-12-06T08:41:31.832Z,6.83
2022-12-06T08:43:59.355Z,7.30
2022-12-06T08:46:27.711Z,6.13
2022-12-06T08:48:55.986Z,7.20
2022-12-06T08:51:23.525Z,7.67
2022-12-06T08:53:51.059Z,7.10
2022-12-06T08:56:19.532Z,7.23
2022-12-06T08:58:47.054Z,6.93
2022-12-06T09:01:14.655Z,7.87
2022-12-06T09:03:42.175Z,7.40
2022-12-06T09:06:09.717Z,7.33
2022-12-06T09:08:37.252Z,6.77
2022-12-06T09:11:05.239Z,7.17
2022-12-06T09:13:32.776Z,7.70
2022-12-06T09:16:00.346Z,7.13
2022-12-06T09:18:28.592Z,7.37
2022-12-06T09:20:56.186Z,7.40
2022-12-06T09:23:23.721Z,7.80
2022-12-06T09:25:51.256Z,7.13
2022-12-06T09:28:19.588Z,7.53
2022-12-06T09:30:47.168Z,6.80
2022-12-06T09:33:14.649Z,6.90
2022-12-06T09:35:43.345Z,7.83
2022-12-06T09:38:10.878Z,7.83
2022-12-06T09:40:43.191Z,7.43
2022-12-06T09:43:38.184Z,7.80
2022-12-06T09:46:08.903Z,7.40
2022-12-06T09:48:49.407Z,7.20
2022-12-06T09:51:24.892Z,7.07
2022-12-06T09:54:05.178Z,7.23
2022-12-06T09:56:51.095Z,7.03
2022-12-06T09:59:27.640Z,7.80
2022-12-06T10:02:32.481Z,7.17
2022-12-06T10:05:22.665Z,7.30
2022-12-06T10:08:01.982Z,5.87
2022-12-06T10:11:00.659Z,6.63
2022-12-06T10:13:56.123Z,6.33
2022-12-06T10:16:57.721Z,6.17
2022-12-06T10:19:30.800Z,6.03
2022-12-06T10:22:00.769Z,6.33
2022-12-06T10:24:38.172Z,6.20
2022-12-06T10:27:08.382Z,7.43
2022-12-06T10:29:57.692Z,7.30
2022-12-06T10:32:52.386Z,5.67
2022-12-06T10:35:25.689Z,5.90
2022-12-06T10:38:01.742Z,7.60
2022-12-06T10:40:32.022Z,6.47
2022-12-06T10:43:05.226Z,7.05
2022-12-06T10:46:04.258Z,6.30
2022-12-06T10:48:39.744Z,5.97
2022-12-06T10:51:10.132Z,5.53
2022-12-06T10:53:37.646Z,5.90
2022-12-06T10:56:07.666Z,6.30
2022-12-06T10:58:44.069Z,5.70
2022-12-06T11:01:11.730Z,6.00
2022-12-06T11:03:41.944Z,5.30
2022-12-06T11:06:15.221Z,5.07
2022-12-06T11:08:51.444Z,6.75
2022-12-06T11:11:26.200Z,5.90
2022-12-06T11:13:59.742Z,6.67
2022-12-06T11:16:33.348Z,6.27
2022-12-06T11:19:03.524Z,5.53
2022-12-06T11:21:33.747Z,5.40
2022-12-06T11:24:03.758Z,5.00
2022-12-06T11:26:34.113Z,5.23
2022-12-06T11:29:01.651Z,5.17
2022-12-06T11:31:29.623Z,4.90
2022-12-06T11:33:57.152Z,4.90
2022-12-06T11:36:24.677Z,5.20
2022-12-06T11:38:52.998Z,5.73
2022-12-06T11:41:23.202Z,5.23
2022-12-06T11:43:50.726Z,4.00
2022-12-06T11:46:18.362Z,4.83
2022-12-06T11:48:45.837Z,4.60
2022-12-06T11:51:13.360Z,4.20
2022-12-06T11:53:50.210Z,5.60
2022-12-06T11:56:23.229Z,4.23
2022-12-06T11:58:59.536Z,4.17
2022-12-06T12:01:42.614Z,3.43
2022-12-06T12:04:31.638Z,3.50
2022-12-06T12:07:02.589Z,3.50
2022-12-06T12:09:30.122Z,3.10
2022-12-06T12:12:01.439Z,3.47
2022-12-06T12:14:28.963Z,3.07
2022-12-06T12:16:59.702Z,3.17
2022-12-06T12:19:51.366Z,2.80
2022-12-06T12:22:28.194Z,3.30
2022-12-06T12:25:17.993Z,4.20
2022-12-06T12:27:39.786Z,3.17
2022-12-06T12:30:16.636Z,3.03
2022-12-06T12:32:44.081Z,3.03
2022-12-06T12:35:23.472Z,3.33
2022-12-06T12:38:00.655Z,3.40
2022-12-06T12:40:34.186Z,3.27
2022-12-06T12:43:13.599Z,3.50
2022-12-06T12:45:41.171Z,3.53
2022-12-06T12:48:21.594Z,2.90
2022-12-06T12:51:00.680Z,2.70
2022-12-06T12:53:33.587Z,2.50
2022-12-06T12:56:10.752Z,2.50
2022-12-06T12:58:38.288Z,2.30
2022-12-06T13:01:25.001Z,2.27
2022-12-06T13:03:52.420Z,2.37
2022-12-06T13:06:19.951Z,2.95
2022-12-06T13:08:47.510Z,2.60
2022-12-06T13:11:15.044Z,3.20
2022-12-06T13:13:45.315Z,2.37
2022-12-06T13:16:13.308Z,2.75
2022-12-06T13:18:43.499Z,2.53
2022-12-06T13:21:19.064Z,2.17
2022-12-06T13:23:46.626Z,2.07
2022-12-06T13:26:16.825Z,1.57
2022-12-06T13:28:45.434Z,1.80
2022-12-06T13:31:13.029Z,1.93
2022-12-06T13:33:41.248Z,2.00
2022-12-06T13:36:12.114Z,2.43
2022-12-06T13:38:39.635Z,2.00
2022-12-06T13:41:13.659Z,2.00
2022-12-06T13:43:42.139Z,2.20
2022-12-06T13:46:09.797Z,2.17
2022-12-06T13:49:01.055Z,2.20
2022-12-06T13:51:31.535Z,2.30
2022-12-06T13:54:05.865Z,2.53
2022-12-06T13:56:33.320Z,1.80
2022-12-06T13:59:14.303Z,2.20
2022-12-06T14:01:47.857Z,2.33
2022-12-06T14:07:03.027Z,2.50
2022-12-06T14:09:45.277Z,2.67
2022-12-06T14:12:16.226Z,2.47
2022-12-06T14:14:43.751Z,2.73
2022-12-06T14:17:11.474Z,2.17
2022-12-06T14:19:41.757Z,2.37
2022-12-06T14:22:18.501Z,2.70
2022-12-06T14:24:57.845Z,2.53
2022-12-06T14:27:25.420Z,2.30
2022-12-06T14:30:05.705Z,3.40
2022-12-06T14:32:36.651Z,2.57
2022-12-06T14:35:07.174Z,2.20
2022-12-06T14:37:34.690Z,2.63
2022-12-06T14:40:16.826Z,3.20
2022-12-06T14:42:48.516Z,2.53
2022-12-06T14:45:16.326Z,2.70
2022-12-06T14:47:44.609Z,2.03
2022-12-06T14:50:27.218Z,1.83
2022-12-06T14:53:01.163Z,2.07
2022-12-06T14:55:31.139Z,2.00
2022-12-06T14:58:02.720Z,1.93
2022-12-06T15:00:36.129Z,1.70
2022-12-06T15:03:03.644Z,1.90
2022-12-06T15:05:37.891Z,1.97
2022-12-06T15:08:27.244Z,2.30
2022-12-06T15:10:58.558Z,2.00
2022-12-06T15:13:26.073Z,2.30
2022-12-06T15:16:06.015Z,2.80
2022-12-06T15:18:36.426Z,2.60
2022-12-06T15:21:03.951Z,2.80
2022-12-06T15:23:37.815Z,3.25
2022-12-06T15:26:08.098Z,3.60
2022-12-06T15:28:36.399Z,3.37
2022-12-06T15:31:04.069Z,2.97
2022-12-06T15:33:32.240Z,4.90
2022-12-06T15:35:59.773Z,2.63
2022-12-06T15:38:29.129Z,3.10
2022-12-06T15:40:56.647Z,3.13
2022-12-06T15:43:29.920Z,3.00
2022-12-06T15:45:58.311Z,3.57
2022-12-06T15:48:25.776Z,3.17
2022-12-06T15:50:53.301Z,3.63
2022-12-06T15:53:20.858Z,3.80
2022-12-06T15:55:48.383Z,3.17
2022-12-06T15:58:15.993Z,2.97
2022-12-06T16:00:43.492Z,3.37
2022-12-06T16:03:11.102Z,3.23
2022-12-06T16:05:39.326Z,2.60
2022-12-06T16:08:07.570Z,3.23
2022-12-06T16:11:09.689Z,2.97
2022-12-06T16:13:20.687Z,2.70
2022-12-06T16:15:48.223Z,3.30
2022-12-06T16:18:15.839Z,3.03
2022-12-06T16:20:44.050Z,3.47
2022-12-06T16:23:49.411Z,3.00
2022-12-06T16:25:57.201Z,2.83
2022-12-06T16:28:24.744Z,2.60
2022-12-06T16:30:52.280Z,2.97
2022-12-06T16:33:20.147Z,2.80
2022-12-06T16:35:47.669Z,3.00
2022-12-06T16:38:15.331Z,2.43
2022-12-06T16:40:43.960Z,2.60
2022-12-06T16:43:11.473Z,3.10
2022-12-06T16:45:38.988Z,3.23
2022-12-06T16:48:06.555Z,2.73
2022-12-06T16:50:34.088Z,2.53
2022-12-06T16:53:01.623Z,2.40
2022-12-06T16:55:29.948Z,2.70
2022-12-06T16:57:57.509Z,2.70
2022-12-06T17:00:25.807Z,3.30
2022-12-06T17:02:53.580Z,2.90
2022-12-06T17:05:24.091Z,3.27
2022-12-06T17:07:51.689Z,3.43
2022-12-06T17:10:19.474Z,4.20
2022-12-06T17:12:47.009Z,3.83
2022-12-06T17:15:15.301Z,3.33
2022-12-06T17:17:42.883Z,3.30
2022-12-06T17:20:10.477Z,3.10
2022-12-06T17:22:38.004Z,2.83
2022-12-06T17:25:05.572Z,3.50
2022-12-06T17:27:33.113Z,3.57
2022-12-06T17:30:00.628Z,3.27
2022-12-06T17:32:28.181Z,4.33
2022-12-06T17:34:55.705Z,4.17
2022-12-06T17:37:23.228Z,5.72
2022-12-06T17:39:50.782Z,6.50
2022-12-06T17:42:36.887Z,4.73
2022-12-06T17:45:05.881Z,6.30
2022-12-06T17:47:33.836Z,6.77
2022-12-06T17:50:02.486Z,9.63
2022-12-06T17:52:29.685Z,6.33
2022-12-06T17:54:57.215Z,4.97
2022-12-06T17:57:24.757Z,5.87
2022-12-06T17:59:52.332Z,11.87
2022-12-06T18:02:20.860Z,16.55
2022-12-06T18:04:48.237Z,11.43
2022-12-06T18:07:16.513Z,13.50
2022-12-06T18:09:44.028Z,12.77
2022-12-06T18:12:11.552Z,11.13
2022-12-06T18:14:39.124Z,8.07
2022-12-06T18:17:07.497Z,6.00
2022-12-06T18:19:35.005Z,5.60
2022-12-06T18:22:03.306Z,5.83
2022-12-06T18:24:35.332Z,6.53
2022-12-06T18:26:58.373Z,7.10
2022-12-06T18:29:26.048Z,6.20
2022-12-06T18:31:53.618Z,5.97
2022-12-06T18:34:21.062Z,7.97
2022-12-06T18:36:49.628Z,7.87
2022-12-06T18:39:17.164Z,7.70
2022-12-06T18:41:44.873Z,15.10
2022-12-06T18:44:13.315Z,8.13
2022-12-06T18:46:40.768Z,10.47
2022-12-06T18:49:09.072Z,9.53
2022-12-06T18:51:36.643Z,7.37
2022-12-06T18:54:04.179Z,6.90
2022-12-06T18:56:32.494Z,5.53
2022-12-06T18:59:02.693Z,5.50
2022-12-06T19:01:30.261Z,5.00
2022-12-06T19:03:57.740Z,5.80
2022-12-06T19:06:25.317Z,6.60
2022-12-06T19:08:52.845Z,5.80
2022-12-06T19:11:20.366Z,6.40
2022-12-06T19:13:54.064Z,6.00
2022-12-06T19:16:22.376Z,5.87
2022-12-06T19:18:49.882Z,6.50
2022-12-06T19:21:18.404Z,10.17
2022-12-06T19:23:45.931Z,8.43
2022-12-06T19:26:13.460Z,9.43
2022-12-06T19:28:41.028Z,11.03
2022-12-06T19:31:08.660Z,10.73
2022-12-06T19:33:36.084Z,12.90
2022-12-06T19:36:04.197Z,10.80
2022-12-06T19:38:31.722Z,11.03
2022-12-06T19:40:59.249Z,12.77
2022-12-06T19:43:27.102Z,11.83
2022-12-06T19:45:54.636Z,11.50
2022-12-06T19:48:22.140Z,10.10
2022-12-06T19:50:50.469Z,9.97
2022-12-06T19:53:18.004Z,8.70
2022-12-06T19:55:48.217Z,9.00
2022-12-06T19:58:15.780Z,7.47
2022-12-06T20:00:43.306Z,8.50
2022-12-06T20:03:10.894Z,12.27
2022-12-06T20:05:38.688Z,13.35
2022-12-06T20:08:06.216Z,11.57
2022-12-06T20:10:33.730Z,11.43
2022-12-06T20:13:02.495Z,11.23
2022-12-06T20:15:30.118Z,16.97
2022-12-06T20:17:57.657Z,11.13
2022-12-06T20:20:25.229Z,10.03
2022-12-06T20:22:53.530Z,8.03
2022-12-06T20:25:21.064Z,7.27
2022-12-06T20:27:52.163Z,7.87
2022-12-06T20:30:19.806Z,7.07
2022-12-06T20:32:47.331Z,7.27
2022-12-06T20:35:15.773Z,9.13
2022-12-06T20:37:43.302Z,7.23
2022-12-06T20:40:10.881Z,7.03
2022-12-06T20:42:38.445Z,6.50
2022-12-06T20:45:06.032Z,6.40
2022-12-06T20:47:34.325Z,8.35
2022-12-06T20:50:03.250Z,6.77
2022-12-06T20:52:30.215Z,7.20
2022-12-06T20:54:57.738Z,7.20
2022-12-06T20:57:25.607Z,7.40
2022-12-06T20:59:53.128Z,7.70
2022-12-06T21:02:21.445Z,7.23
2022-12-06T21:04:50.009Z,6.87
2022-12-06T21:07:17.534Z,7.07
2022-12-06T21:09:45.081Z,8.30
2022-12-06T21:12:12.659Z,9.75
2022-12-06T21:14:40.187Z,9.17
2022-12-06T21:17:07.719Z,7.73
2022-12-06T21:19:35.283Z,7.03
2022-12-06T21:22:02.896Z,7.43
2022-12-06T21:24:30.383Z,7.23
2022-12-06T21:26:57.947Z,6.73
2022-12-06T21:29:30.638Z,6.23
2022-12-06T21:31:52.999Z,6.30
2022-12-06T21:34:20.554Z,7.95
2022-12-06T21:36:48.080Z,8.17
2022-12-06T21:39:15.615Z,8.67
2022-12-06T21:41:43.974Z,7.83
2022-12-06T21:44:11.502Z,7.87
2022-12-06T21:46:39.176Z,9.30
2022-12-06T21:49:07.228Z,8.33
2022-12-06T21:51:34.760Z,7.67
2022-12-06T21:54:02.313Z,7.70
2022-12-06T21:56:30.767Z,6.70
2022-12-06T21:58:58.276Z,6.83
2022-12-06T22:01:25.872Z,6.97
2022-12-06T22:03:54.626Z,7.63
2022-12-06T22:06:22.149Z,7.53
2022-12-06T22:08:50.443Z,7.77
2022-12-06T22:11:18.017Z,8.57
2022-12-06T22:13:45.542Z,7.83
2022-12-06T22:16:13.918Z,7.50
2022-12-06T22:18:45.302Z,8.00
2022-12-06T22:21:08.942Z,8.47
2022-12-06T22:23:37.225Z,9.10
2022-12-06T22:26:05.921Z,8.13
2022-12-06T22:28:33.448Z,7.00
2022-12-06T22:31:19.389Z,7.40
2022-12-06T22:33:46.851Z,7.07
2022-12-06T22:36:14.376Z,7.33
2022-12-06T22:38:42.708Z,6.73
2022-12-06T22:41:10.241Z,6.33
2022-12-06T22:43:37.777Z,7.20
2022-12-06T22:46:06.117Z,6.67
2022-12-06T22:48:33.653Z,7.47
2022-12-06T22:51:25.892Z,8.85
2022-12-06T22:53:58.865Z,7.83
2022-12-06T22:56:26.406Z,7.87
2022-12-06T22:58:53.970Z,7.57
2022-12-06T23:01:21.504Z,7.07
2022-12-06T23:03:49.868Z,8.00
2022-12-06T23:06:17.433Z,7.77
2022-12-06T23:08:45.017Z,7.33
2022-12-06T23:11:12.483Z,7.10
2022-12-06T23:13:40.362Z,7.30
2022-12-06T23:16:07.998Z,7.80
2022-12-06T23:18:35.488Z,8.10
2022-12-06T23:21:17.644Z,7.67
2022-12-06T23:23:45.179Z,8.73
2022-12-06T23:26:12.743Z,8.37
2022-12-06T23:28:40.269Z,7.27
2022-12-06T23:31:10.557Z,7.63
2022-12-06T23:33:38.055Z,7.47
2022-12-06T23:36:09.568Z,8.40
2022-12-06T23:38:37.102Z,8.73
2022-12-06T23:41:05.415Z,7.87
2022-12-06T23:43:32.979Z,7.70
2022-12-06T23:46:06.929Z,7.63
2022-12-06T23:48:28.049Z,7.03
2022-12-06T23:51:02.102Z,8.23
2022-12-06T23:53:29.628Z,6.93
2022-12-06T23:55:57.909Z,7.03
2022-12-06T23:58:26.273Z,6.90
